createdAt,value
2023-04-21T00:01:38.868Z,9.46
2023-04-21T00:04:11.845Z,9.45
2023-04-21T00:06:47.672Z,9.39
2023-04-21T00:09:23.924Z,9.42
2023-04-21T00:11:57.938Z,9.39
2023-04-21T00:14:33.119Z,9.40
2023-04-21T00:17:03.607Z,9.38
2023-04-21T00:19:34.322Z,9.38
2023-04-21T00:22:12.648Z,9.22
2023-04-21T00:24:42.588Z,9.06
2023-04-21T00:27:12.735Z,8.95
2023-04-21T00:29:43.017Z,8.92
2023-04-21T00:32:15.659Z,8.80
2023-04-21T00:34:45.612Z,8.76
2023-04-21T00:37:20.758Z,8.70
2023-04-21T00:39:51.682Z,8.68
2023-04-21T00:42:21.598Z,8.71
2023-04-21T00:44:52.706Z,8.70
2023-04-21T00:47:22.922Z,8.65
2023-04-21T00:49:54.509Z,8.61
2023-04-21T00:52:29.770Z,8.63
2023-04-21T00:55:02.650Z,8.59
2023-04-21T00:57:38.687Z,8.52
2023-04-21T01:00:13.963Z,8.53
2023-04-21T01:02:46.327Z,8.59
2023-04-21T01:05:25.035Z,8.59
2023-04-21T01:08:02.180Z,8.52
2023-04-21T01:10:40.579Z,8.53
2023-04-21T01:13:10.374Z,8.47
2023-04-21T01:15:42.889Z,8.43
2023-04-21T01:18:13.530Z,8.42
2023-04-21T01:20:45.005Z,8.37
2023-04-21T01:23:21.471Z,8.31
2023-04-21T01:25:51.421Z,8.30
2023-04-21T01:55:46.571Z,8.77
2023-04-21T02:07:24.088Z,8.34
2023-04-21T02:09:54.063Z,8.34
2023-04-21T02:12:26.670Z,8.32
2023-04-21T02:15:07.157Z,8.26
2023-04-21T02:17:37.117Z,8.20
2023-04-21T02:20:07.721Z,8.22
2023-04-21T02:22:42.392Z,8.22
2023-04-21T02:25:17.786Z,8.25
2023-04-21T02:27:50.336Z,8.20
2023-04-21T02:30:21.084Z,8.19
2023-04-21T02:32:51.230Z,8.16
2023-04-21T02:35:21.285Z,8.18
2023-04-21T02:37:53.891Z,8.21
2023-04-21T02:40:23.716Z,8.22
2023-04-21T02:42:56.498Z,8.18
2023-04-21T02:45:41.612Z,8.18
2023-04-21T02:48:11.709Z,8.18
2023-04-21T02:50:42.028Z,8.28
2023-04-21T02:53:11.889Z,8.31
2023-04-21T02:55:45.629Z,8.39
2023-04-21T02:58:18.324Z,8.31
2023-04-21T03:00:57.163Z,8.35
2023-04-21T03:03:28.055Z,8.43
2023-04-21T03:06:00.552Z,8.45
2023-04-21T03:08:33.658Z,8.44
2023-04-21T03:11:13.499Z,8.41
2023-04-21T03:13:46.066Z,8.40
2023-04-21T03:16:16.214Z,8.42
2023-04-21T03:18:46.167Z,8.47
2023-04-21T03:21:16.197Z,8.46
2023-04-21T03:23:46.196Z,8.47
2023-04-21T03:26:19.459Z,8.49
2023-04-21T03:28:52.007Z,8.53
2023-04-21T03:31:21.892Z,8.50
2023-04-21T03:33:51.779Z,8.49
2023-04-21T03:36:21.650Z,8.48
2023-04-21T03:38:51.553Z,8.46
2023-04-21T03:41:23.608Z,8.44
2023-04-21T03:43:57.682Z,8.44
2023-04-21T03:46:27.862Z,8.38
2023-04-21T03:48:57.859Z,8.37
2023-04-21T03:51:27.704Z,8.34
2023-04-21T03:54:01.617Z,8.33
2023-04-21T03:56:38.868Z,8.34
2023-04-21T03:59:11.319Z,8.32
2023-04-21T04:01:45.174Z,8.32
2023-04-21T04:04:15.375Z,8.28
2023-04-21T04:06:45.423Z,8.29
2023-04-21T04:09:15.255Z,8.25
2023-04-21T04:11:45.054Z,8.24
2023-04-21T04:14:17.555Z,8.25
2023-04-21T04:16:49.461Z,8.24
2023-04-21T04:19:19.627Z,8.18
2023-04-21T04:21:52.094Z,8.15
2023-04-21T04:24:29.253Z,8.15
2023-04-21T04:27:02.345Z,8.17
2023-04-21T04:29:35.322Z,8.16
2023-04-21T04:32:12.280Z,8.17
2023-04-21T04:34:42.941Z,8.19
2023-04-21T04:37:13.630Z,8.15
2023-04-21T04:39:49.112Z,8.15
2023-04-21T04:42:20.486Z,8.14
2023-04-21T04:44:57.585Z,8.17
2023-04-21T04:47:30.644Z,8.24
2023-04-21T04:50:05.528Z,8.30
2023-04-21T04:52:35.499Z,8.34
2023-04-21T04:55:09.985Z,8.40
2023-04-21T04:57:40.035Z,8.50
2023-04-21T05:00:19.216Z,8.55
2023-04-21T05:02:49.410Z,8.58
2023-04-21T05:05:30.793Z,8.71
2023-04-21T05:08:28.447Z,8.77
2023-04-21T05:11:03.484Z,8.79
2023-04-21T05:13:33.428Z,8.87
2023-04-21T05:22:56.851Z,9.00
2023-04-21T05:25:27.020Z,9.02
2023-04-21T05:27:59.878Z,9.04
2023-04-21T05:30:29.766Z,9.04
2023-04-21T05:32:59.968Z,9.04
2023-04-21T05:35:29.812Z,9.02
2023-04-21T05:38:04.709Z,9.07
2023-04-21T05:40:34.561Z,9.11
2023-04-21T05:43:05.309Z,9.21
2023-04-21T05:45:35.074Z,9.27
2023-04-21T05:48:04.936Z,9.29
2023-04-21T05:50:44.911Z,9.36
2023-04-21T05:53:19.958Z,9.54
2023-04-21T05:55:49.865Z,9.72
2023-04-21T05:58:19.857Z,9.84
2023-04-21T06:00:53.155Z,9.96
2023-04-21T06:03:27.489Z,10.10
2023-04-21T06:06:02.279Z,10.32
2023-04-21T06:08:36.229Z,10.53
2023-04-21T06:11:07.370Z,10.55
2023-04-21T06:13:38.534Z,10.50
2023-04-21T06:16:09.592Z,10.58
2023-04-21T06:18:40.617Z,10.58
2023-04-21T06:21:10.512Z,10.68
2023-04-21T06:23:45.637Z,10.74
2023-04-21T06:26:17.814Z,10.94
2023-04-21T06:28:47.718Z,11.04
2023-04-21T06:31:20.394Z,11.19
2023-04-21T06:33:50.329Z,11.34
2023-04-21T06:36:22.057Z,11.39
2023-04-21T06:38:58.651Z,11.29
2023-04-21T06:41:32.771Z,11.25
2023-04-21T06:44:02.563Z,11.27
2023-04-21T06:46:37.711Z,11.36
2023-04-21T06:49:07.527Z,11.50
2023-04-21T06:54:31.444Z,11.66
2023-04-21T06:57:08.417Z,11.72
2023-04-21T06:59:49.130Z,11.83
2023-04-21T07:02:20.065Z,11.90
2023-04-21T07:04:52.308Z,11.99
2023-04-21T07:07:22.142Z,12.05
2023-04-21T07:09:54.603Z,12.23
2023-04-21T07:12:27.087Z,12.23
2023-04-21T07:14:56.898Z,12.27
2023-04-21T07:17:26.775Z,12.29
2023-04-21T07:20:19.215Z,12.28
2023-04-21T07:22:51.705Z,12.35
2023-04-21T07:25:24.626Z,12.51
2023-04-21T07:27:56.817Z,12.66
2023-04-21T07:30:26.677Z,12.67
2023-04-21T07:32:59.347Z,12.87
2023-04-21T07:35:33.867Z,12.91
2023-04-21T07:38:03.712Z,13.02
2023-04-21T07:40:36.182Z,13.15
2023-04-21T07:43:12.121Z,13.18
2023-04-21T07:45:41.987Z,13.47
2023-04-21T07:48:11.910Z,13.56
2023-04-21T07:50:44.463Z,13.75
2023-04-21T07:53:14.287Z,13.85
2023-04-21T07:55:58.577Z,13.74
2023-04-21T07:58:28.436Z,13.75
2023-04-21T08:01:01.046Z,13.84
2023-04-21T08:03:32.150Z,13.80
2023-04-21T08:06:08.308Z,13.90
2023-04-21T08:08:43.805Z,14.00
2023-04-21T08:14:03.609Z,14.21
2023-04-21T08:16:34.798Z,14.36
2023-04-21T08:19:09.709Z,14.50
2023-04-21T08:21:40.307Z,14.62
2023-04-21T08:24:11.422Z,14.65
2023-04-21T08:26:49.349Z,14.82
2023-04-21T08:29:21.859Z,14.85
2023-04-21T08:31:54.620Z,14.76
2023-04-21T08:34:35.944Z,14.86
2023-04-21T08:37:08.406Z,15.03
2023-04-21T08:39:38.284Z,14.95
2023-04-21T08:42:15.984Z,14.88
2023-04-21T08:44:48.733Z,14.84
2023-04-21T08:47:18.924Z,14.97
2023-04-21T08:49:58.089Z,15.14
2023-04-21T08:52:28.268Z,15.13
2023-04-21T08:55:02.876Z,15.08
2023-04-21T08:57:40.817Z,14.98
2023-04-21T09:00:12.387Z,15.00
2023-04-21T09:03:00.884Z,14.99
2023-04-21T09:05:41.932Z,15.05
2023-04-21T09:08:23.537Z,15.12
2023-04-21T09:10:55.300Z,15.22
2023-04-21T09:13:33.591Z,15.22
2023-04-21T09:16:07.366Z,15.21
2023-04-21T09:18:40.915Z,15.28
2023-04-21T09:21:12.559Z,15.41
2023-04-21T09:23:51.890Z,15.47
2023-04-21T09:26:23.463Z,15.47
2023-04-21T09:28:56.561Z,15.47
2023-04-21T09:31:29.425Z,15.63
2023-04-21T09:34:01.822Z,15.63
2023-04-21T09:36:32.944Z,15.68
2023-04-21T09:41:37.370Z,15.85
2023-04-21T09:44:09.783Z,15.82
2023-04-21T09:46:40.354Z,15.79
2023-04-21T09:49:12.701Z,15.77
2023-04-21T09:52:10.503Z,15.84
2023-04-21T09:54:37.378Z,15.90
2023-04-21T09:57:09.569Z,16.01
2023-04-21T09:59:48.678Z,16.19
2023-04-21T10:02:22.690Z,16.17
2023-04-21T10:04:53.057Z,16.21
2023-04-21T10:07:23.023Z,16.27
2023-04-21T10:09:58.245Z,16.37
2023-04-21T10:12:29.416Z,16.38
2023-04-21T10:15:01.824Z,16.42
2023-04-21T10:17:31.960Z,16.53
2023-04-21T10:22:46.220Z,16.66
2023-04-21T10:25:17.363Z,16.69
2023-04-21T10:27:48.416Z,16.72
2023-04-21T10:30:26.874Z,16.79
2023-04-21T10:33:07.182Z,16.86
2023-04-21T10:36:01.643Z,16.96
2023-04-21T10:38:38.422Z,17.00
2023-04-21T10:41:30.097Z,17.07
2023-04-21T10:44:01.306Z,17.13
2023-04-21T10:46:42.091Z,17.18
2023-04-21T10:49:18.364Z,17.24
2023-04-21T10:52:06.545Z,17.27
2023-04-21T10:54:46.315Z,17.39
2023-04-21T10:57:23.129Z,17.53
2023-04-21T10:59:55.482Z,17.57
2023-04-21T11:02:28.131Z,17.54
2023-04-21T11:04:58.503Z,17.56
2023-04-21T11:07:29.564Z,17.54
2023-04-21T11:10:04.228Z,17.67
2023-04-21T11:12:35.206Z,17.72
2023-04-21T11:15:13.057Z,17.69
2023-04-21T11:17:48.942Z,17.73
2023-04-21T11:20:18.852Z,17.72
2023-04-21T11:22:48.681Z,17.77
2023-04-21T11:25:23.182Z,17.86
2023-04-21T11:28:00.323Z,17.93
2023-04-21T11:30:39.095Z,17.93
2023-04-21T11:33:11.590Z,18.00
2023-04-21T11:35:48.689Z,18.05
2023-04-21T11:38:21.406Z,18.12
2023-04-21T11:40:52.218Z,18.19
2023-04-21T11:43:24.169Z,18.17
2023-04-21T11:45:54.066Z,18.20
2023-04-21T11:48:35.178Z,18.20
2023-04-21T11:51:05.276Z,18.24
2023-04-21T11:53:35.984Z,18.36
2023-04-21T11:56:06.907Z,18.44
2023-04-21T11:58:38.483Z,18.42
2023-04-21T12:01:11.959Z,18.42
2023-04-21T12:03:44.790Z,18.43
2023-04-21T12:06:23.815Z,18.48
2023-04-21T12:08:59.529Z,18.60
2023-04-21T12:11:30.602Z,18.63
2023-04-21T12:14:01.129Z,18.68
2023-04-21T12:16:32.132Z,18.63
2023-04-21T12:19:04.569Z,18.62
2023-04-21T12:21:38.511Z,18.70
2023-04-21T12:24:11.720Z,18.78
2023-04-21T12:26:42.288Z,18.80
2023-04-21T12:29:12.088Z,18.77
2023-04-21T12:31:54.401Z,18.79
2023-04-21T12:34:33.106Z,18.81
2023-04-21T12:37:03.116Z,18.80
2023-04-21T12:42:19.280Z,18.88
2023-04-21T12:44:51.689Z,18.93
2023-04-21T12:47:24.536Z,18.88
2023-04-21T12:50:01.560Z,18.90
2023-04-21T12:52:31.578Z,18.95
2023-04-21T12:55:02.232Z,19.05
2023-04-21T12:57:34.521Z,19.08
2023-04-21T13:00:10.523Z,18.98
2023-04-21T13:02:40.426Z,18.99
2023-04-21T13:05:15.608Z,18.89
2023-04-21T13:07:45.511Z,18.75
2023-04-21T13:10:18.220Z,18.71
2023-04-21T13:12:49.658Z,18.78
2023-04-21T13:15:23.729Z,18.86
2023-04-21T13:17:57.535Z,18.92
2023-04-21T13:20:30.011Z,19.02
2023-04-21T13:22:59.861Z,19.14
2023-04-21T13:25:31.221Z,19.29
2023-04-21T13:28:01.214Z,19.38
2023-04-21T13:30:34.077Z,19.40
2023-04-21T13:33:03.973Z,19.41
2023-04-21T13:35:39.267Z,19.36
2023-04-21T13:38:09.103Z,19.27
2023-04-21T13:40:39.777Z,19.20
2023-04-21T13:43:09.645Z,19.14
2023-04-21T13:45:41.497Z,19.04
2023-04-21T13:48:11.459Z,18.92
2023-04-21T13:50:45.299Z,18.87
2023-04-21T13:53:16.875Z,18.90
2023-04-21T13:55:49.688Z,18.98
2023-04-21T13:58:19.849Z,19.14
2023-04-21T14:00:49.686Z,19.18
2023-04-21T14:03:19.855Z,19.09
2023-04-21T14:05:52.753Z,19.03
2023-04-21T14:08:23.310Z,18.98
2023-04-21T14:10:56.243Z,19.01
2023-04-21T14:13:37.364Z,19.08
2023-04-21T14:16:12.213Z,19.18
2023-04-21T14:18:45.441Z,19.31
2023-04-21T14:21:18.582Z,19.38
2023-04-21T14:23:52.940Z,19.44
2023-04-21T14:26:26.952Z,19.50
2023-04-21T14:28:56.856Z,19.46
2023-04-21T14:31:26.689Z,19.47
2023-04-21T14:33:58.220Z,19.46
2023-04-21T14:36:31.289Z,19.42
2023-04-21T14:39:01.100Z,19.38
2023-04-21T14:41:31.202Z,19.29
2023-04-21T14:44:01.037Z,19.32
2023-04-21T14:46:35.793Z,19.32
2023-04-21T14:49:06.089Z,19.37
2023-04-21T14:51:40.671Z,19.48
2023-04-21T14:54:11.779Z,19.41
2023-04-21T14:56:41.687Z,19.07
2023-04-21T14:59:11.552Z,18.88
2023-04-21T15:01:41.654Z,18.59
2023-04-21T15:04:11.920Z,18.42
2023-04-21T15:06:44.498Z,18.43
2023-04-21T15:09:14.317Z,18.28
2023-04-21T15:11:44.324Z,18.25
2023-04-21T15:14:14.243Z,18.20
2023-04-21T15:16:44.105Z,18.23
2023-04-21T15:19:19.554Z,18.24
2023-04-21T15:22:03.855Z,18.06
2023-04-21T15:24:49.070Z,18.08
2023-04-21T15:27:19.320Z,18.17
2023-04-21T15:29:49.154Z,18.19
2023-04-21T15:32:19.016Z,18.16
2023-04-21T15:35:00.505Z,17.98
2023-04-21T15:37:40.767Z,17.83
2023-04-21T15:40:21.263Z,17.78
2023-04-21T15:42:52.697Z,17.68
2023-04-21T15:45:22.549Z,17.71
2023-04-21T15:47:52.558Z,17.70
2023-04-21T15:50:29.327Z,17.67
2023-04-21T15:53:09.367Z,17.63
2023-04-21T15:55:43.176Z,17.73
2023-04-21T15:58:15.055Z,17.83
2023-04-21T16:00:46.128Z,17.83
2023-04-21T16:03:16.175Z,17.94
2023-04-21T16:05:47.593Z,18.03
2023-04-21T16:08:20.261Z,18.01
2023-04-21T16:10:50.719Z,17.97
2023-04-21T16:13:21.377Z,18.07
2023-04-21T16:15:53.760Z,18.10
2023-04-21T16:18:36.974Z,18.16
2023-04-21T16:21:08.012Z,18.23
2023-04-21T16:23:44.884Z,18.40
2023-04-21T16:26:17.159Z,18.58
2023-04-21T16:28:48.242Z,18.71
2023-04-21T16:31:22.786Z,18.81
2023-04-21T16:34:01.330Z,18.89
2023-04-21T16:36:32.647Z,18.93
2023-04-21T16:39:08.655Z,18.92
2023-04-21T16:41:43.620Z,18.94
2023-04-21T16:44:20.859Z,18.98
2023-04-21T16:46:51.529Z,19.05
2023-04-21T16:49:24.258Z,19.15
2023-04-21T16:51:55.426Z,19.13
2023-04-21T16:54:33.688Z,19.12
2023-04-21T16:59:50.142Z,19.15
2023-04-21T17:02:20.247Z,19.11
2023-04-21T17:04:50.333Z,19.09
2023-04-21T17:07:22.377Z,19.14
2023-04-21T17:09:57.612Z,19.12
2023-04-21T17:12:27.428Z,19.16
2023-04-21T17:14:58.577Z,19.12
2023-04-21T17:17:29.819Z,19.14
2023-04-21T17:20:03.883Z,19.08
2023-04-21T17:22:39.754Z,18.95
2023-04-21T17:25:14.675Z,18.89
2023-04-21T17:27:45.064Z,18.87
2023-04-21T17:30:15.351Z,18.87
2023-04-21T17:32:51.568Z,18.89
2023-04-21T17:35:28.296Z,18.86
2023-04-21T17:38:01.891Z,18.79
2023-04-21T17:40:36.406Z,18.76
2023-04-21T17:43:06.247Z,18.76
2023-04-21T17:45:37.166Z,18.66
2023-04-21T17:48:07.405Z,18.59
2023-04-21T17:50:37.367Z,18.53
2023-04-21T17:53:09.977Z,18.49
2023-04-21T17:55:45.488Z,18.43
2023-04-21T17:58:15.398Z,18.47
2023-04-21T18:00:45.256Z,18.44
2023-04-21T18:03:15.185Z,18.44
2023-04-21T18:05:45.084Z,18.44
2023-04-21T18:08:15.774Z,18.39
2023-04-21T18:10:51.448Z,18.37
2023-04-21T18:13:21.315Z,18.26
2023-04-21T18:15:53.642Z,18.23
2023-04-21T18:18:23.525Z,18.22
2023-04-21T18:20:53.408Z,18.23
2023-04-21T18:23:24.023Z,18.19
2023-04-21T18:25:56.546Z,18.17
2023-04-21T18:28:26.362Z,18.20
2023-04-21T18:30:56.280Z,18.10
2023-04-21T18:33:26.320Z,18.14
2023-04-21T18:35:57.385Z,18.10
2023-04-21T18:38:36.102Z,18.11
2023-04-21T18:41:08.538Z,18.13
2023-04-21T18:43:38.492Z,18.04
2023-04-21T18:46:08.599Z,17.99
2023-04-21T18:48:38.445Z,17.86
2023-04-21T18:51:08.348Z,17.78
2023-04-21T18:53:39.808Z,17.62
2023-04-21T18:56:15.018Z,17.38
2023-04-21T18:58:44.855Z,17.19
2023-04-21T19:01:14.805Z,17.06
2023-04-21T19:03:45.156Z,16.83
2023-04-21T19:06:15.115Z,16.60
2023-04-21T19:08:45.214Z,16.43
2023-04-21T19:11:18.281Z,16.35
2023-04-21T19:13:48.491Z,16.27
2023-04-21T19:16:18.592Z,16.19
2023-04-21T19:18:48.541Z,16.10
2023-04-21T19:21:18.392Z,16.00
2023-04-21T19:23:48.232Z,15.96
2023-04-21T19:26:22.084Z,15.92
2023-04-21T19:28:52.163Z,15.76
2023-04-21T19:31:24.408Z,15.64
2023-04-21T19:33:54.353Z,15.50
2023-04-21T19:36:24.422Z,15.44
2023-04-21T19:38:57.331Z,15.35
2023-04-21T19:41:29.710Z,15.25
2023-04-21T19:43:59.844Z,15.23
2023-04-21T19:46:30.032Z,15.32
2023-04-21T19:48:59.860Z,15.35
2023-04-21T19:51:30.230Z,15.26
2023-04-21T19:54:11.532Z,15.20
2023-04-21T19:56:44.930Z,15.20
2023-04-21T19:59:14.819Z,15.12
2023-04-21T20:01:44.649Z,15.13
2023-04-21T20:04:14.578Z,15.13
2023-04-21T20:06:44.541Z,15.18
2023-04-21T20:09:14.706Z,15.11
2023-04-21T20:11:47.260Z,15.14
2023-04-21T20:14:17.311Z,15.11
2023-04-21T20:16:48.127Z,15.13
2023-04-21T20:19:18.203Z,15.18
2023-04-21T20:21:51.227Z,15.19
2023-04-21T20:24:21.557Z,15.18
2023-04-21T20:26:54.193Z,15.19
2023-04-21T20:29:24.775Z,15.17
2023-04-21T20:31:54.713Z,15.13
2023-04-21T20:34:24.853Z,15.11
2023-04-21T20:36:55.874Z,15.14
2023-04-21T20:39:25.972Z,15.08
2023-04-21T20:42:09.203Z,15.05
2023-04-21T20:44:42.944Z,15.02
2023-04-21T20:47:13.550Z,15.01
2023-04-21T20:49:43.834Z,14.98
2023-04-21T20:52:13.782Z,15.00
2023-04-21T20:54:43.609Z,15.00
2023-04-21T20:57:16.256Z,15.25
2023-04-21T20:59:46.079Z,15.48
2023-04-21T21:02:16.134Z,15.65
2023-04-21T21:04:47.433Z,15.54
2023-04-21T21:07:17.504Z,15.57
2023-04-21T21:09:47.390Z,15.72
2023-04-21T21:12:19.853Z,15.86
2023-04-21T21:14:49.636Z,16.01
2023-04-21T21:17:19.564Z,16.09
2023-04-21T21:19:49.646Z,16.15
2023-04-21T21:22:19.436Z,16.22
2023-04-21T21:24:50.661Z,16.30
2023-04-21T21:27:23.143Z,16.38
2023-04-21T21:29:52.980Z,16.44
2023-04-21T21:32:22.846Z,16.51
2023-04-21T21:34:52.757Z,16.55
2023-04-21T21:37:26.299Z,16.57
2023-04-21T21:39:56.502Z,16.52
2023-04-21T21:42:28.902Z,16.51
2023-04-21T21:44:58.688Z,16.47
2023-04-21T21:47:29.070Z,16.40
2023-04-21T21:49:59.315Z,16.33
2023-04-21T21:52:29.163Z,16.27
2023-04-21T21:55:01.370Z,16.16
2023-04-21T21:57:33.839Z,16.08
2023-04-21T22:00:03.762Z,16.02
2023-04-21T22:02:33.779Z,15.94
2023-04-21T22:05:04.660Z,15.89
2023-04-21T22:07:35.651Z,15.75
2023-04-21T22:10:05.662Z,15.66
2023-04-21T22:12:38.177Z,15.53
2023-04-21T22:15:09.761Z,15.41
2023-04-21T22:17:40.431Z,15.32
2023-04-21T22:20:12.372Z,15.27
2023-04-21T22:22:42.218Z,15.24
2023-04-21T22:25:13.694Z,15.27
2023-04-21T22:27:48.671Z,15.26
2023-04-21T22:30:18.467Z,15.25
2023-04-21T22:32:48.367Z,15.20
2023-04-21T22:35:18.249Z,15.09
2023-04-21T22:37:48.105Z,15.00
2023-04-21T22:40:18.017Z,14.94
2023-04-21T22:42:50.476Z,14.90
2023-04-21T22:45:20.324Z,14.84
2023-04-21T22:47:50.260Z,14.85
2023-04-21T22:50:21.646Z,14.84
2023-04-21T22:52:52.035Z,14.78
2023-04-21T22:55:29.038Z,14.76
2023-04-21T22:58:01.502Z,14.75
2023-04-21T23:00:31.377Z,14.71
2023-04-21T23:03:01.357Z,14.70
2023-04-21T23:05:32.396Z,14.68
2023-04-21T23:08:02.220Z,14.67
2023-04-21T23:10:32.314Z,14.66
2023-04-21T23:13:04.850Z,14.66
2023-04-21T23:15:34.636Z,14.65
2023-04-21T23:18:04.556Z,14.64
2023-04-21T23:20:34.551Z,14.69
2023-04-21T23:23:04.429Z,14.73
2023-04-21T23:25:34.236Z,14.76
2023-04-21T23:28:06.638Z,14.76
2023-04-21T23:30:36.636Z,14.75
2023-04-21T23:33:06.798Z,14.70
2023-04-21T23:35:36.679Z,14.68
2023-04-21T23:38:06.499Z,14.64
2023-04-21T23:40:36.331Z,14.62
2023-04-21T23:43:09.510Z,14.58
2023-04-21T23:45:39.438Z,14.55
2023-04-21T23:48:09.367Z,14.54
2023-04-21T23:50:39.368Z,14.54
2023-04-21T23:53:09.230Z,14.53
2023-04-21T23:55:39.304Z,14.55
2023-04-21T23:58:12.541Z,14.57
